Surrey, North Dakota
Current Conditions -  °F | °C
As of 7:54 PM on Friday 21 Nov 2014 (Local Time) from KMOT Reporting Station
Clear Clear  
Wind Chill: 31°   Ceiling: Unl
Heat Index: 40°   Visibility: 10mi
Dew Point: 29°   Wind: 16mph
Humidity: 65%   Direction: 230°SW
Pressure: 29.61"   Gusts: NA
Location:  48.24°N, 101.13°W
Report Text: KMOT 220154Z 23014KT 10SM CLR 04/M02 A2961 RMK AO2 SLP044 T00441017
Loading
Personal Weather Stations






























Interactive Weather Map New forecast layout! Learn more

10-Day Weather Forecast

Advertisements
Track Severe Weather on mobile